Time;durP1;ratioP1;P1;durP2;ratioP2;P2;SDS_P1;SDS_P2;PMS_P1;PMS_P2;Temp;Humidity;BMP_temperature;BMP_pressure;BME280_temperature;BME280_humidity;BME280_pressure;Samples;Min_cycle;Max_cycle;Signal;HPM_P1;HPM_P2
2021/03/02 00:02:03;;;;;;;9.97;5.90;;;;;;;;;;6213227;23;20008;-87
2021/03/02 00:04:29;;;;;;;12.70;6.23;;;;;;;;;;6214032;23;20012;-85
2021/03/02 00:06:55;;;;;;;11.57;5.60;;;;;;;;;;6212742;23;20096;-86
2021/03/02 00:09:22;;;;;;;11.83;6.10;;;;;;;;;;6190239;23;20005;-86
2021/03/02 00:11:48;;;;;;;12.03;6.13;;;;;;;;;;6212326;23;20032;-85
2021/03/02 00:14:14;;;;;;;12.77;5.57;;;;;;;;;;6212696;23;20023;-87
2021/03/02 00:16:43;;;;;;;11.50;6.20;;;;;;;;;;6212106;23;20020;-86
2021/03/02 00:19:11;;;;;;;9.73;5.40;;;;;;;;;;6189029;23;20383;-87
2021/03/02 00:21:40;;;;;;;11.20;6.00;;;;;;;;;;6211968;23;20102;-87
2021/03/02 00:24:08;;;;;;;12.07;6.00;;;;;;;;;;6212038;23;20005;-86
2021/03/02 00:26:37;;;;;;;12.23;6.67;;;;;;;;;;6189492;23;20028;-85
2021/03/02 00:29:04;;;;;;;13.20;6.00;;;;;;;;;;6211903;23;20008;-85
2021/03/02 00:31:34;;;;;;;10.17;5.73;;;;;;;;;;6189527;23;20055;-86
2021/03/02 00:34:00;;;;;;;12.60;6.37;;;;;;;;;;6211790;23;20005;-86
2021/03/02 00:36:27;;;;;;;10.90;5.70;;;;;;;;;;6211924;23;20027;-85
2021/03/02 00:38:53;;;;;;;10.53;6.20;;;;;;;;;;6211765;23;20076;-87
2021/03/02 00:41:19;;;;;;;15.30;6.53;;;;;;;;;;6212321;23;20007;-85
2021/03/02 00:43:45;;;;;;;11.13;6.00;;;;;;;;;;6188501;23;20039;-87
2021/03/02 00:46:11;;;;;;;12.90;6.60;;;;;;;;;;6217111;23;20008;-86
2021/03/02 00:48:37;;;;;;;12.03;6.20;;;;;;;;;;6216846;23;20026;-86
2021/03/02 00:51:03;;;;;;;13.80;6.23;;;;;;;;;;6216722;23;20091;-85
2021/03/02 00:53:32;;;;;;;11.13;6.23;;;;;;;;;;6217501;23;20054;-86
2021/03/02 00:55:58;;;;;;;13.57;6.43;;;;;;;;;;6216997;23;20001;-87
2021/03/02 00:58:24;;;;;;;13.07;6.30;;;;;;;;;;6216923;23;20004;-86
2021/03/02 01:00:50;;;;;;;12.53;7.50;;;;;;;;;;6217964;23;20007;-86
2021/03/02 01:03:16;;;;;;;11.47;6.10;;;;;;;;;;6217569;23;20008;-86
2021/03/02 01:05:42;;;;;;;13.90;6.73;;;;;;;;;;6217124;23;20091;-85
2021/03/02 01:08:08;;;;;;;13.20;6.57;;;;;;;;;;6217607;23;20019;-86
2021/03/02 01:10:34;;;;;;;11.60;6.03;;;;;;;;;;6217199;23;20055;-86
2021/03/02 01:13:00;;;;;;;14.73;7.30;;;;;;;;;;6221119;23;20004;-87
2021/03/02 01:15:26;;;;;;;13.73;6.40;;;;;;;;;;6222445;23;19997;-86
2021/03/02 01:17:52;;;;;;;13.13;7.03;;;;;;;;;;6217280;23;20001;-89
2021/03/02 01:20:18;;;;;;;13.33;6.97;;;;;;;;;;6216999;23;20005;-86
2021/03/02 01:22:44;;;;;;;15.20;6.67;;;;;;;;;;6216815;23;20032;-86
2021/03/02 01:25:11;;;;;;;12.57;6.90;;;;;;;;;;6217095;23;20001;-86
2021/03/02 01:27:37;;;;;;;13.90;7.00;;;;;;;;;;6216505;23;20012;-86
2021/03/02 01:30:07;;;;;;;12.63;6.07;;;;;;;;;;6215997;23;20000;-85
2021/03/02 01:32:33;;;;;;;11.70;6.73;;;;;;;;;;6215877;23;20008;-86
2021/03/02 01:34:59;;;;;;;12.50;7.10;;;;;;;;;;6216749;23;20064;-86
2021/03/02 01:37:25;;;;;;;14.90;6.60;;;;;;;;;;6216953;23;20014;-87
2021/03/02 01:39:51;;;;;;;11.67;6.93;;;;;;;;;;6216463;23;20004;-86
2021/03/02 01:42:17;;;;;;;12.40;6.30;;;;;;;;;;6217316;23;20005;-86
2021/03/02 01:44:43;;;;;;;13.93;6.50;;;;;;;;;;6217029;23;20580;-86
2021/03/02 01:47:09;;;;;;;9.10;5.70;;;;;;;;;;6218389;23;20047;-86
2021/03/02 01:49:35;;;;;;;13.60;6.70;;;;;;;;;;6215854;23;20008;-86
2021/03/02 01:52:01;;;;;;;14.73;7.33;;;;;;;;;;6217423;23;20332;-86
2021/03/02 01:54:28;;;;;;;11.77;6.40;;;;;;;;;;6217014;23;20100;-86
2021/03/02 01:56:54;;;;;;;11.43;6.50;;;;;;;;;;6218296;23;20395;-85
2021/03/02 01:59:20;;;;;;;11.70;6.23;;;;;;;;;;6218326;23;20008;-85
2021/03/02 02:01:47;;;;;;;13.27;6.40;;;;;;;;;;6216380;23;20004;-86
2021/03/02 02:04:23;;;;;;;13.47;6.57;;;;;;;;;;6216714;23;20341;-86
2021/03/02 02:06:53;;;;;;;12.60;6.83;;;;;;;;;;6218177;23;20004;-85
2021/03/02 02:09:31;;;;;;;11.23;6.37;;;;;;;;;;6216562;23;20035;-86
2021/03/02 02:12:05;;;;;;;13.50;6.60;;;;;;;;;;6216583;23;20005;-86
2021/03/02 02:14:31;;;;;;;11.93;6.53;;;;;;;;;;6216573;23;20001;-86
2021/03/02 02:16:59;;;;;;;12.60;6.57;;;;;;;;;;6218832;23;20119;-85
2021/03/02 02:19:54;;;;;;;18.20;6.87;;;;;;;;;;6215739;23;20008;-88
2021/03/02 02:22:39;;;;;;;13.33;7.10;;;;;;;;;;6172379;23;20084;-86
2021/03/02 02:25:24;;;;;;;11.33;6.60;;;;;;;;;;6216497;23;20013;-87
2021/03/02 02:27:52;;;;;;;11.73;6.50;;;;;;;;;;6213950;23;20027;-85
2021/03/02 02:30:19;;;;;;;12.60;6.70;;;;;;;;;;6218269;23;20638;-86
2021/03/02 02:32:49;;;;;;;12.03;6.83;;;;;;;;;;6216329;23;20017;-86
2021/03/02 02:35:16;;;;;;;12.20;6.77;;;;;;;;;;6215467;23;20020;-86
2021/03/02 02:37:44;;;;;;;13.27;6.77;;;;;;;;;;6216808;23;20075;-86
2021/03/02 02:40:13;;;;;;;14.27;6.83;;;;;;;;;;6216470;23;19997;-85
2021/03/02 02:42:39;;;;;;;13.97;6.57;;;;;;;;;;6217852;23;20048;-85
2021/03/02 02:45:06;;;;;;;12.43;5.97;;;;;;;;;;6218277;23;20012;-85
2021/03/02 02:47:32;;;;;;;13.50;6.80;;;;;;;;;;6215651;23;20010;-87
2021/03/02 02:49:58;;;;;;;13.60;6.70;;;;;;;;;;6217773;23;20001;-86
2021/03/02 02:52:25;;;;;;;13.80;6.90;;;;;;;;;;6217250;23;20070;-86
2021/03/02 02:54:53;;;;;;;14.17;7.23;;;;;;;;;;6216838;23;20005;-86
2021/03/02 02:57:20;;;;;;;16.97;7.17;;;;;;;;;;6216882;23;19998;-87
2021/03/02 02:59:48;;;;;;;13.13;7.37;;;;;;;;;;6217248;23;20008;-87
2021/03/02 03:02:18;;;;;;;14.13;7.13;;;;;;;;;;6217518;23;20000;-87
2021/03/02 03:04:46;;;;;;;14.43;6.83;;;;;;;;;;6216403;23;20444;-87
2021/03/02 03:07:15;;;;;;;12.20;6.67;;;;;;;;;;6216639;23;20036;-86
2021/03/02 03:09:43;;;;;;;12.77;7.43;;;;;;;;;;6214812;23;20324;-86
2021/03/02 03:12:11;;;;;;;13.40;7.77;;;;;;;;;;6215986;23;20012;-87
2021/03/02 03:14:40;;;;;;;13.13;7.27;;;;;;;;;;6215446;23;20009;-86
2021/03/02 03:17:08;;;;;;;15.40;7.30;;;;;;;;;;6217069;23;20001;-86
2021/03/02 03:19:35;;;;;;;14.70;7.27;;;;;;;;;;6215286;23;20393;-85
2021/03/02 03:22:02;;;;;;;15.93;7.53;;;;;;;;;;6217317;23;20024;-87
2021/03/02 03:24:28;;;;;;;15.50;7.60;;;;;;;;;;6216095;23;20011;-88
2021/03/02 03:26:54;;;;;;;14.00;7.23;;;;;;;;;;6215476;23;20427;-86
2021/03/02 03:29:21;;;;;;;17.20;7.90;;;;;;;;;;6214706;23;20009;-87
2021/03/02 03:31:47;;;;;;;13.37;7.50;;;;;;;;;;6214323;23;20016;-86
2021/03/02 03:34:14;;;;;;;12.73;7.23;;;;;;;;;;6215026;23;20091;-86
2021/03/02 03:36:40;;;;;;;17.47;7.90;;;;;;;;;;6214547;23;20032;-86
2021/03/02 03:39:06;;;;;;;12.80;7.03;;;;;;;;;;6214414;23;20087;-86
2021/03/02 03:41:33;;;;;;;16.87;8.10;;;;;;;;;;6214572;23;20512;-85
2021/03/02 03:43:59;;;;;;;15.40;7.53;;;;;;;;;;6213690;23;20009;-86
2021/03/02 03:46:25;;;;;;;13.37;7.67;;;;;;;;;;6214467;23;20094;-87
2021/03/02 03:48:52;;;;;;;16.33;7.37;;;;;;;;;;6213592;23;20103;-85
2021/03/02 03:51:18;;;;;;;14.83;7.87;;;;;;;;;;6214626;23;20032;-86
2021/03/02 03:53:44;;;;;;;15.00;7.60;;;;;;;;;;6213017;23;20043;-85
2021/03/02 03:56:11;;;;;;;20.30;8.00;;;;;;;;;;6214457;23;20444;-86
2021/03/02 03:58:38;;;;;;;12.80;7.07;;;;;;;;;;6215340;23;20351;-87
2021/03/02 04:01:04;;;;;;;13.97;7.83;;;;;;;;;;6213789;23;20056;-86
2021/03/02 04:03:32;;;;;;;14.87;7.00;;;;;;;;;;6213627;23;20060;-86
2021/03/02 04:05:59;;;;;;;14.60;7.47;;;;;;;;;;6214244;23;20008;-86
2021/03/02 04:08:25;;;;;;;15.53;8.20;;;;;;;;;;6215323;23;20036;-85
2021/03/02 04:10:51;;;;;;;14.87;7.53;;;;;;;;;;6211089;23;20317;-86
2021/03/02 04:13:17;;;;;;;14.37;7.97;;;;;;;;;;6213811;23;20107;-86
2021/03/02 04:15:44;;;;;;;13.83;7.53;;;;;;;;;;6210856;23;20005;-86
2021/03/02 04:18:10;;;;;;;15.80;7.73;;;;;;;;;;6212945;23;20008;-85
2021/03/02 04:20:37;;;;;;;14.00;7.50;;;;;;;;;;6213919;23;20491;-86
2021/03/02 04:23:03;;;;;;;16.77;7.97;;;;;;;;;;6214172;23;20059;-86
2021/03/02 04:25:29;;;;;;;14.83;7.40;;;;;;;;;;6213306;23;20064;-86
2021/03/02 04:27:55;;;;;;;15.00;7.67;;;;;;;;;;6213451;23;20040;-86
2021/03/02 04:30:21;;;;;;;16.53;8.80;;;;;;;;;;6214841;23;20024;-86
2021/03/02 04:32:47;;;;;;;14.50;7.67;;;;;;;;;;6214744;23;20773;-86
2021/03/02 04:35:13;;;;;;;14.10;7.93;;;;;;;;;;6216046;23;20011;-86
2021/03/02 04:37:39;;;;;;;14.53;7.67;;;;;;;;;;6215944;23;20008;-86
2021/03/02 04:40:06;;;;;;;16.83;7.67;;;;;;;;;;6216548;23;20004;-87
2021/03/02 04:42:32;;;;;;;18.97;8.07;;;;;;;;;;6216396;23;20000;-85
2021/03/02 04:44:58;;;;;;;14.67;7.93;;;;;;;;;;6218967;23;20027;-87
2021/03/02 04:47:24;;;;;;;17.07;7.97;;;;;;;;;;6223457;23;20447;-86
2021/03/02 04:49:50;;;;;;;17.97;8.03;;;;;;;;;;6219342;23;20015;-85
2021/03/02 04:52:17;;;;;;;15.43;7.63;;;;;;;;;;6218157;23;20000;-86
2021/03/02 04:54:43;;;;;;;16.70;8.27;;;;;;;;;;6217468;23;20005;-85
2021/03/02 04:57:09;;;;;;;14.50;7.57;;;;;;;;;;6215895;23;20001;-85
2021/03/02 04:59:35;;;;;;;17.73;8.93;;;;;;;;;;6215161;23;20039;-87
2021/03/02 05:02:01;;;;;;;15.03;8.07;;;;;;;;;;6217946;23;20035;-87
2021/03/02 05:04:27;;;;;;;23.03;9.00;;;;;;;;;;6215703;23;20008;-88
2021/03/02 05:06:53;;;;;;;16.57;8.23;;;;;;;;;;6216113;23;20030;-85
2021/03/02 05:09:19;;;;;;;18.70;8.67;;;;;;;;;;6215031;23;20454;-85
2021/03/02 05:11:45;;;;;;;13.37;7.43;;;;;;;;;;6217824;23;20005;-86
2021/03/02 05:14:11;;;;;;;19.17;8.30;;;;;;;;;;6215689;23;20043;-87
2021/03/02 05:16:37;;;;;;;16.03;7.67;;;;;;;;;;6215943;23;20051;-86
2021/03/02 05:19:03;;;;;;;16.00;8.03;;;;;;;;;;6216428;23;20005;-86
2021/03/02 05:21:29;;;;;;;15.73;8.23;;;;;;;;;;6218122;23;19996;-87
2021/03/02 05:23:55;;;;;;;14.70;8.17;;;;;;;;;;6216068;23;20004;-86
2021/03/02 05:26:21;;;;;;;17.10;8.23;;;;;;;;;;6216069;23;20004;-86
2021/03/02 05:28:51;;;;;;;18.33;8.20;;;;;;;;;;6216567;23;20032;-87
2021/03/02 05:31:17;;;;;;;15.03;8.00;;;;;;;;;;6219312;23;20435;-87
2021/03/02 05:33:43;;;;;;;16.80;8.00;;;;;;;;;;6218938;23;20084;-86
2021/03/02 05:36:09;;;;;;;17.17;8.30;;;;;;;;;;6218786;23;20004;-86
2021/03/02 05:38:35;;;;;;;13.97;7.90;;;;;;;;;;6217652;23;20023;-85
2021/03/02 05:41:02;;;;;;;15.47;7.73;;;;;;;;;;6215175;23;20336;-86
2021/03/02 05:43:29;;;;;;;16.17;7.47;;;;;;;;;;6213418;23;20088;-85
2021/03/02 05:45:56;;;;;;;15.77;8.20;;;;;;;;;;6216394;23;20369;-86
2021/03/02 05:48:22;;;;;;;20.60;8.73;;;;;;;;;;6213773;23;20004;-86
2021/03/02 05:50:48;;;;;;;16.60;8.50;;;;;;;;;;6214212;23;20067;-86
2021/03/02 05:53:14;;;;;;;15.20;7.93;;;;;;;;;;6214834;23;20091;-84
2021/03/02 05:55:40;;;;;;;16.03;8.30;;;;;;;;;;6215004;23;20332;-85
2021/03/02 05:58:07;;;;;;;15.80;8.50;;;;;;;;;;6214973;23;20432;-85
2021/03/02 06:00:33;;;;;;;16.93;8.53;;;;;;;;;;6216687;23;20414;-86
2021/03/02 06:02:59;;;;;;;16.33;7.73;;;;;;;;;;6215491;23;20457;-86
2021/03/02 06:05:25;;;;;;;15.33;8.37;;;;;;;;;;6216577;23;20028;-86
2021/03/02 06:07:52;;;;;;;15.27;8.47;;;;;;;;;;6214838;23;20391;-84
2021/03/02 06:10:18;;;;;;;14.47;8.17;;;;;;;;;;6215255;23;20005;-85
2021/03/02 06:12:53;;;;;;;15.40;7.93;;;;;;;;;;6215631;23;19997;-86
2021/03/02 06:15:20;;;;;;;15.97;7.87;;;;;;;;;;6215001;23;20005;-85
2021/03/02 06:17:47;;;;;;;15.57;8.43;;;;;;;;;;6214932;23;20011;-87
2021/03/02 06:20:20;;;;;;;15.07;8.53;;;;;;;;;;6216019;23;20060;-86
2021/03/02 06:22:46;;;;;;;15.73;8.57;;;;;;;;;;6216102;23;20448;-85
2021/03/02 06:25:29;;;;;;;17.43;8.23;;;;;;;;;;6215796;23;20008;-86
2021/03/02 06:27:56;;;;;;;15.10;8.20;;;;;;;;;;6216148;23;20472;-86
2021/03/02 06:30:23;;;;;;;15.93;8.73;;;;;;;;;;6216889;23;20034;-87
2021/03/02 06:32:52;;;;;;;15.80;8.67;;;;;;;;;;6217185;23;20004;-87
2021/03/02 06:35:30;;;;;;;16.23;8.57;;;;;;;;;;6222264;23;20339;-86
2021/03/02 06:37:56;;;;;;;17.03;8.43;;;;;;;;;;6217122;23;20063;-85
2021/03/02 06:40:41;;;;;;;15.73;8.23;;;;;;;;;;6218175;23;20023;-86
2021/03/02 06:43:07;;;;;;;15.67;8.43;;;;;;;;;;6217747;23;20068;-85
2021/03/02 06:45:34;;;;;;;17.20;8.83;;;;;;;;;;6218862;23;20008;-85
2021/03/02 06:48:04;;;;;;;15.33;8.47;;;;;;;;;;6217655;23;20009;-86
2021/03/02 06:50:36;;;;;;;16.83;8.50;;;;;;;;;;6215816;23;20004;-86
2021/03/02 06:53:07;;;;;;;15.85;8.88;;;;;;;;;;6216808;23;20059;-86
2021/03/02 06:55:34;;;;;;;15.93;8.80;;;;;;;;;;6216101;23;20023;-86
2021/03/02 06:58:15;;;;;;;16.83;8.80;;;;;;;;;;6215968;23;20005;-87
2021/03/02 07:00:45;;;;;;;18.63;8.67;;;;;;;;;;6218000;23;20000;-86
2021/03/02 07:03:24;;;;;;;18.10;8.80;;;;;;;;;;6217580;23;20009;-86
2021/03/02 07:05:50;;;;;;;15.37;8.37;;;;;;;;;;6214133;23;20164;-85
2021/03/02 07:08:17;;;;;;;19.30;9.47;;;;;;;;;;6214914;23;20408;-85
2021/03/02 07:10:44;;;;;;;17.50;9.40;;;;;;;;;;6215225;23;20352;-86
2021/03/02 07:13:14;;;;;;;16.13;8.70;;;;;;;;;;6215735;23;20015;-85
2021/03/02 07:15:41;;;;;;;16.23;8.60;;;;;;;;;;6215609;23;20387;-85
2021/03/02 07:18:10;;;;;;;17.63;9.73;;;;;;;;;;6215647;23;20007;-85
2021/03/02 07:20:36;;;;;;;18.13;9.73;;;;;;;;;;6214435;23;20033;-85
2021/03/02 07:23:02;;;;;;;18.30;9.53;;;;;;;;;;6215255;23;20001;-85
2021/03/02 07:25:29;;;;;;;18.73;9.20;;;;;;;;;;6215409;23;20419;-85
2021/03/02 07:27:59;;;;;;;19.63;9.60;;;;;;;;;;6215229;23;20440;-85
2021/03/02 07:30:25;;;;;;;20.63;9.60;;;;;;;;;;6214495;23;20008;-85
2021/03/02 07:32:52;;;;;;;21.10;9.13;;;;;;;;;;6215085;23;20005;-85
2021/03/02 07:35:19;;;;;;;16.80;9.47;;;;;;;;;;6214664;23;20005;-86
2021/03/02 07:37:45;;;;;;;21.37;10.13;;;;;;;;;;6214882;23;20078;-85
2021/03/02 07:40:13;;;;;;;21.70;9.73;;;;;;;;;;6209310;23;20091;-84
2021/03/02 07:42:39;;;;;;;15.43;9.20;;;;;;;;;;6215510;23;20375;-84
2021/03/02 07:45:05;;;;;;;17.30;9.27;;;;;;;;;;6217753;23;20452;-85
2021/03/02 07:47:41;;;;;;;14.67;8.97;;;;;;;;;;6218222;23;20004;-83
2021/03/02 07:50:26;;;;;;;20.00;9.57;;;;;;;;;;6214668;23;20008;-85
2021/03/02 07:53:11;;;;;;;18.47;9.10;;;;;;;;;;6216938;23;20076;-83
2021/03/02 07:55:37;;;;;;;17.00;9.00;;;;;;;;;;6211261;23;20004;-85
2021/03/02 07:58:20;;;;;;;17.43;9.43;;;;;;;;;;6214422;23;20336;-84
2021/03/02 08:00:47;;;;;;;16.60;9.35;;;;;;;;;;6217569;23;20023;-84
2021/03/02 08:03:20;;;;;;;16.53;9.17;;;;;;;;;;6219798;23;20008;-84
2021/03/02 08:05:49;;;;;;;20.60;9.80;;;;;;;;;;6217002;23;20462;-84
2021/03/02 08:08:32;;;;;;;16.87;9.63;;;;;;;;;;6217980;23;20009;-84
2021/03/02 08:11:03;;;;;;;23.30;9.80;;;;;;;;;;6218258;23;20004;-85
2021/03/02 08:13:38;;;;;;;17.27;10.43;;;;;;;;;;6216444;23;20431;-85
2021/03/02 08:16:08;;;;;;;17.77;10.40;;;;;;;;;;6217037;23;20001;-84
2021/03/02 08:18:41;;;;;;;18.50;10.10;;;;;;;;;;6216543;23;20087;-85
2021/03/02 08:21:09;;;;;;;19.03;10.63;;;;;;;;;;6229653;23;20071;-86
2021/03/02 08:23:52;;;;;;;24.70;10.00;;;;;;;;;;6232094;23;20063;-85
2021/03/02 08:26:21;;;;;;;17.77;10.37;;;;;;;;;;6226471;23;20008;-85
2021/03/02 08:29:15;;;;;;;16.43;9.27;;;;;;;;;;6227039;23;20005;-84
2021/03/02 08:31:45;;;;;;;18.73;10.23;;;;;;;;;;6198721;23;20072;-84
2021/03/02 08:34:12;;;;;;;21.27;10.37;;;;;;;;;;6232173;23;20060;-85
2021/03/02 08:36:38;;;;;;;18.63;10.33;;;;;;;;;;6229527;23;20499;-85
2021/03/02 08:39:08;;;;;;;15.30;9.43;;;;;;;;;;6227098;23;20440;-85
2021/03/02 08:41:36;;;;;;;17.77;9.93;;;;;;;;;;6229468;23;20008;-86
2021/03/02 08:44:02;;;;;;;19.63;10.73;;;;;;;;;;6225243;23;20047;-85
2021/03/02 08:46:30;;;;;;;19.93;10.43;;;;;;;;;;6231643;23;20015;-85
2021/03/02 08:48:56;;;;;;;16.80;9.70;;;;;;;;;;6222677;23;20074;-85
2021/03/02 08:51:23;;;;;;;18.33;10.37;;;;;;;;;;6223548;23;20004;-85
2021/03/02 08:53:50;;;;;;;17.40;10.20;;;;;;;;;;6231426;23;20049;-85
2021/03/02 08:56:19;;;;;;;17.50;9.63;;;;;;;;;;6227911;23;20450;-85
2021/03/02 08:58:46;;;;;;;18.53;9.23;;;;;;;;;;6228602;23;20080;-85
2021/03/02 09:01:13;;;;;;;18.80;10.07;;;;;;;;;;6226393;23;20000;-86
2021/03/02 09:03:40;;;;;;;19.00;10.33;;;;;;;;;;6226940;23;20091;-86
2021/03/02 09:06:11;;;;;;;16.43;10.27;;;;;;;;;;6228907;23;20004;-86
2021/03/02 09:08:56;;;;;;;20.73;10.40;;;;;;;;;;6230048;23;20028;-86
2021/03/02 09:11:24;;;;;;;17.93;9.73;;;;;;;;;;6233625;23;20024;-85
2021/03/02 09:13:51;;;;;;;17.47;10.03;;;;;;;;;;6230860;23;20008;-86
2021/03/02 09:16:26;;;;;;;19.47;10.70;;;;;;;;;;6225155;23;20004;-85
2021/03/02 09:19:11;;;;;;;20.37;11.23;;;;;;;;;;6220863;23;20058;-85
2021/03/02 09:21:57;;;;;;;18.23;10.13;;;;;;;;;;6221845;23;20055;-85
2021/03/02 09:24:24;;;;;;;17.27;10.30;;;;;;;;;;6194309;23;20451;-85
2021/03/02 09:26:51;;;;;;;20.13;10.37;;;;;;;;;;6221907;23;20084;-86
2021/03/02 09:29:17;;;;;;;20.83;11.20;;;;;;;;;;6223424;23;20009;-86
2021/03/02 09:31:43;;;;;;;18.83;11.40;;;;;;;;;;6222750;23;20399;-85
2021/03/02 09:34:10;;;;;;;18.37;11.37;;;;;;;;;;6217550;23;20032;-85
2021/03/02 09:36:36;;;;;;;20.60;11.43;;;;;;;;;;6224001;23;20011;-84
2021/03/02 09:39:17;;;;;;;16.97;10.23;;;;;;;;;;6224285;23;20000;-86
2021/03/02 09:41:43;;;;;;;17.57;10.53;;;;;;;;;;6221012;23;20079;-86
2021/03/02 09:44:23;;;;;;;19.13;10.93;;;;;;;;;;6196608;23;20515;-85
2021/03/02 09:46:49;;;;;;;19.67;11.93;;;;;;;;;;6221859;23;20352;-84
2021/03/02 09:49:34;;;;;;;20.27;11.20;;;;;;;;;;6171772;23;20013;-85
2021/03/02 09:52:01;;;;;;;19.80;11.30;;;;;;;;;;6222807;23;20066;-85
2021/03/02 09:54:27;;;;;;;22.17;11.53;;;;;;;;;;6220435;23;20009;-84
2021/03/02 09:57:01;;;;;;;21.63;10.67;;;;;;;;;;6216206;23;20000;-83
2021/03/02 09:59:27;;;;;;;18.90;10.97;;;;;;;;;;6210951;23;20012;-86
2021/03/02 10:01:53;;;;;;;19.53;11.73;;;;;;;;;;6205633;23;20084;-87
2021/03/02 10:04:21;;;;;;;19.70;11.30;;;;;;;;;;6207567;23;20062;-85
2021/03/02 10:06:48;;;;;;;22.57;10.87;;;;;;;;;;6213809;23;20004;-84
2021/03/02 10:09:21;;;;;;;23.07;12.03;;;;;;;;;;6214257;23;20004;-86
2021/03/02 10:11:47;;;;;;;20.53;11.03;;;;;;;;;;6215262;23;20005;-84
2021/03/02 10:14:13;;;;;;;22.75;12.13;;;;;;;;;;6212936;23;20005;-84
2021/03/02 10:16:41;;;;;;;22.42;11.57;;;;;;;;;;6213397;23;20444;-85
2021/03/02 10:19:07;;;;;;;20.15;11.23;;;;;;;;;;6214004;23;20084;-85
2021/03/02 10:21:43;;;;;;;20.10;11.93;;;;;;;;;;6215698;23;20340;-86
2021/03/02 10:24:09;;;;;;;22.03;11.63;;;;;;;;;;6215581;23;20011;-85
2021/03/02 10:26:38;;;;;;;19.02;11.35;;;;;;;;;;6216118;23;20075;-85
2021/03/02 10:29:06;;;;;;;19.88;11.13;;;;;;;;;;6212359;23;20012;-87
2021/03/02 10:31:32;;;;;;;17.88;10.77;;;;;;;;;;6213398;23;20084;-86
2021/03/02 10:34:01;;;;;;;20.30;11.60;;;;;;;;;;6214028;23;20054;-87
2021/03/02 10:36:28;;;;;;;18.15;11.63;;;;;;;;;;6214451;23;20009;-85
2021/03/02 10:38:55;;;;;;;19.02;11.57;;;;;;;;;;6213006;23;19996;-87
2021/03/02 10:41:22;;;;;;;22.48;11.40;;;;;;;;;;6215998;23;20000;-84
2021/03/02 10:43:48;;;;;;;18.35;12.07;;;;;;;;;;6210530;23;20035;-86
2021/03/02 10:46:15;;;;;;;20.67;11.23;;;;;;;;;;6212765;23;20149;-86
2021/03/02 10:48:41;;;;;;;20.88;11.63;;;;;;;;;;6211760;23;20088;-84
2021/03/02 10:51:07;;;;;;;19.33;10.80;;;;;;;;;;6212190;23;20009;-83
2021/03/02 10:53:33;;;;;;;21.30;11.48;;;;;;;;;;6210503;23;20423;-84
2021/03/02 10:55:59;;;;;;;20.60;11.57;;;;;;;;;;6210668;23;20009;-84
2021/03/02 10:58:26;;;;;;;18.42;11.27;;;;;;;;;;6212224;23;20506;-84
2021/03/02 11:00:55;;;;;;;19.02;11.35;;;;;;;;;;6210122;23;20054;-83
2021/03/02 11:03:21;;;;;;;19.42;11.55;;;;;;;;;;6211752;23;20378;-85
2021/03/02 11:05:49;;;;;;;21.33;12.05;;;;;;;;;;6210428;23;20004;-86
2021/03/02 11:08:15;;;;;;;18.17;11.70;;;;;;;;;;6212186;23;20660;-85
2021/03/02 11:10:41;;;;;;;20.05;10.82;;;;;;;;;;6213117;23;20418;-83
2021/03/02 11:13:07;;;;;;;19.80;12.07;;;;;;;;;;6211107;23;20228;-83
2021/03/02 11:15:34;;;;;;;19.10;10.85;;;;;;;;;;6215111;23;20054;-87
2021/03/02 11:21:04;;;;;;;18.85;10.60;;;;;;;;;;6189333;23;20007;-85
2021/03/02 11:23:30;;;;;;;20.05;12.02;;;;;;;;;;6208141;23;20013;-87
2021/03/02 11:25:56;;;;;;;18.25;11.10;;;;;;;;;;6211025;23;20017;-86
2021/03/02 11:28:22;;;;;;;18.70;10.68;;;;;;;;;;6212436;23;20015;-86
2021/03/02 11:30:48;;;;;;;20.67;11.45;;;;;;;;;;6204440;23;20502;-86
2021/03/02 11:33:15;;;;;;;19.88;10.82;;;;;;;;;;6211709;23;20005;-85
2021/03/02 11:35:41;;;;;;;18.02;11.35;;;;;;;;;;6213396;23;20080;-89
2021/03/02 11:38:08;;;;;;;19.65;10.63;;;;;;;;;;6211322;23;20104;-84
2021/03/02 11:40:34;;;;;;;25.65;11.75;;;;;;;;;;6212854;23;20413;-84
2021/03/02 11:43:01;;;;;;;20.25;10.82;;;;;;;;;;6211756;23;20039;-85
2021/03/02 11:45:29;;;;;;;16.60;10.15;;;;;;;;;;6212315;23;20091;-87
2021/03/02 11:47:55;;;;;;;20.70;11.00;;;;;;;;;;6214140;23;19992;-87
2021/03/02 11:50:22;;;;;;;16.35;10.75;;;;;;;;;;6211032;23;20004;-84
2021/03/02 11:52:48;;;;;;;17.95;11.07;;;;;;;;;;6213319;23;20011;-89
2021/03/02 11:55:15;;;;;;;17.88;10.65;;;;;;;;;;6209121;23;20031;-85
2021/03/02 11:57:41;;;;;;;19.75;10.55;;;;;;;;;;6215664;23;20475;-87
2021/03/02 12:00:09;;;;;;;17.52;10.07;;;;;;;;;;6215359;23;20012;-86
2021/03/02 12:02:35;;;;;;;24.15;10.93;;;;;;;;;;6213734;23;20088;-84
2021/03/02 12:05:01;;;;;;;16.42;9.57;;;;;;;;;;6214510;23;20008;-86
2021/03/02 12:07:27;;;;;;;15.95;9.32;;;;;;;;;;6213698;23;20004;-87
2021/03/02 12:09:53;;;;;;;16.20;9.15;;;;;;;;;;6211594;23;20077;-85
2021/03/02 12:12:19;;;;;;;17.35;8.52;;;;;;;;;;6216067;23;20001;-86
2021/03/02 12:14:46;;;;;;;14.98;8.88;;;;;;;;;;6213869;23;20016;-86
2021/03/02 12:17:12;;;;;;;17.77;9.27;;;;;;;;;;6212515;23;20000;-83
2021/03/02 12:19:38;;;;;;;17.30;8.95;;;;;;;;;;6215800;23;20013;-87
2021/03/02 12:22:04;;;;;;;17.30;9.52;;;;;;;;;;6215844;23;20461;-83
2021/03/02 12:24:30;;;;;;;18.50;9.40;;;;;;;;;;6215326;23;20386;-86
2021/03/02 12:26:57;;;;;;;19.90;10.32;;;;;;;;;;6215272;23;20013;-84
2021/03/02 12:29:23;;;;;;;16.83;9.98;;;;;;;;;;6212926;23;20355;-84
2021/03/02 12:31:49;;;;;;;16.20;9.60;;;;;;;;;;6215165;23;20008;-86
2021/03/02 12:34:15;;;;;;;16.35;9.38;;;;;;;;;;6214033;23;20000;-85
2021/03/02 12:36:41;;;;;;;16.17;10.13;;;;;;;;;;6213289;23;20001;-87
2021/03/02 12:39:08;;;;;;;19.52;10.05;;;;;;;;;;6213582;23;19996;-85
2021/03/02 12:41:34;;;;;;;17.00;10.88;;;;;;;;;;6217001;23;20004;-86
2021/03/02 12:44:00;;;;;;;19.38;9.95;;;;;;;;;;6215479;23;20003;-86
2021/03/02 12:46:26;;;;;;;16.85;9.05;;;;;;;;;;6217971;23;20036;-85
2021/03/02 12:48:52;;;;;;;17.70;8.70;;;;;;;;;;6213033;23;20011;-86
2021/03/02 12:51:19;;;;;;;16.90;8.90;;;;;;;;;;6217003;23;20009;-86
2021/03/02 12:53:46;;;;;;;17.90;9.85;;;;;;;;;;6217371;23;20039;-87
2021/03/02 12:56:12;;;;;;;18.38;10.38;;;;;;;;;;6216023;23;20343;-85
2021/03/02 12:58:38;;;;;;;20.95;10.90;;;;;;;;;;6214296;23;20001;-89
2021/03/02 13:01:04;;;;;;;20.48;10.05;;;;;;;;;;6208807;23;20005;-85
2021/03/02 13:03:30;;;;;;;18.42;10.20;;;;;;;;;;6213817;23;20016;-86
2021/03/02 13:06:00;;;;;;;18.95;10.38;;;;;;;;;;6214346;23;20008;-84
2021/03/02 13:08:26;;;;;;;15.93;10.52;;;;;;;;;;6216596;23;20008;-87
2021/03/02 13:10:52;;;;;;;19.33;10.25;;;;;;;;;;6214609;23;20000;-83
2021/03/02 13:13:18;;;;;;;23.85;10.50;;;;;;;;;;6213961;23;20007;-84
2021/03/02 13:15:44;;;;;;;16.90;9.82;;;;;;;;;;6210967;23;20004;-85
2021/03/02 13:18:11;;;;;;;16.30;9.90;;;;;;;;;;6216011;23;20368;-87
2021/03/02 13:20:37;;;;;;;15.45;9.13;;;;;;;;;;6209864;23;20003;-88
2021/03/02 13:23:03;;;;;;;17.63;10.07;;;;;;;;;;6214419;23;19997;-86
2021/03/02 13:25:29;;;;;;;16.55;9.68;;;;;;;;;;6216079;23;20000;-85
2021/03/02 13:27:55;;;;;;;17.83;9.75;;;;;;;;;;6214116;23;20023;-86
2021/03/02 13:30:24;;;;;;;16.17;9.77;;;;;;;;;;6211507;23;20039;-85
2021/03/02 13:33:01;;;;;;;16.58;9.32;;;;;;;;;;6214236;23;19997;-86
2021/03/02 13:35:28;;;;;;;18.33;10.25;;;;;;;;;;6215075;23;20080;-84
2021/03/02 13:37:54;;;;;;;18.38;9.60;;;;;;;;;;6212251;23;20424;-85
2021/03/02 13:40:21;;;;;;;19.85;9.48;;;;;;;;;;6213493;23;20008;-88
2021/03/02 13:42:51;;;;;;;16.20;9.57;;;;;;;;;;6213706;23;20001;-85
2021/03/02 13:45:18;;;;;;;17.27;9.73;;;;;;;;;;6209730;23;20019;-85
2021/03/02 13:47:45;;;;;;;20.50;9.82;;;;;;;;;;6214295;23;20008;-86
2021/03/02 13:50:13;;;;;;;18.77;9.80;;;;;;;;;;6213577;23;20054;-85
2021/03/02 13:52:39;;;;;;;21.70;10.93;;;;;;;;;;6209478;23;20178;-84
2021/03/02 13:55:05;;;;;;;19.50;10.00;;;;;;;;;;6210187;23;20012;-86
2021/03/02 13:57:33;;;;;;;17.20;9.65;;;;;;;;;;6209756;23;20001;-86
2021/03/02 14:00:00;;;;;;;17.40;9.55;;;;;;;;;;6212177;23;20001;-85
2021/03/02 14:02:27;;;;;;;20.17;10.48;;;;;;;;;;6212281;23;20005;-84
2021/03/02 14:04:57;;;;;;;16.92;9.38;;;;;;;;;;6210860;23;20009;-85
2021/03/02 14:07:25;;;;;;;18.50;8.95;;;;;;;;;;6210377;23;20091;-86
2021/03/02 14:09:52;;;;;;;19.27;10.77;;;;;;;;;;6208979;23;20012;-85
2021/03/02 14:12:18;;;;;;;19.27;10.07;;;;;;;;;;6209239;23;20017;-85
2021/03/02 14:14:44;;;;;;;18.48;10.27;;;;;;;;;;6207926;23;20001;-87
2021/03/02 14:17:12;;;;;;;19.63;9.82;;;;;;;;;;6209875;23;20086;-87
2021/03/02 14:19:39;;;;;;;18.67;10.57;;;;;;;;;;6210574;23;20032;-87
2021/03/02 14:22:05;;;;;;;18.25;10.35;;;;;;;;;;6210292;23;20001;-89
2021/03/02 14:24:31;;;;;;;18.25;10.18;;;;;;;;;;6208305;23;20391;-90
2021/03/02 14:26:58;;;;;;;20.75;10.77;;;;;;;;;;6209746;23;20008;-86
2021/03/02 14:29:26;;;;;;;19.92;10.60;;;;;;;;;;6210702;23;20440;-85
2021/03/02 14:31:55;;;;;;;19.20;10.43;;;;;;;;;;6212080;23;20070;-85
2021/03/02 14:34:22;;;;;;;18.25;10.23;;;;;;;;;;6210625;23;20200;-86